sensor_id;sensor_type;location;lat;lon;timestamp;pressure;altitude;pressure_sealevel;temperature;humidity
75065;BME280;63646;49.110;9.140;2022-09-27T00:00:58;97597.97;;;21.66;52.22
75065;BME280;63646;49.110;9.140;2022-09-27T00:03:23;97603.91;;;21.68;52.53
75065;BME280;63646;49.110;9.140;2022-09-27T00:08:28;97595.94;;;21.68;52.14
75065;BME280;63646;49.110;9.140;2022-09-27T00:10:58;97596.75;;;21.68;52.09
75065;BME280;63646;49.110;9.140;2022-09-27T00:13:24;97594.09;;;21.68;51.93
75065;BME280;63646;49.110;9.140;2022-09-27T00:15:55;97591.28;;;21.70;51.99
75065;BME280;63646;49.110;9.140;2022-09-27T00:18:21;97576.50;;;21.67;52.14
75065;BME280;63646;49.110;9.140;2022-09-27T00:20:46;97583.47;;;21.68;52.26
75065;BME280;63646;49.110;9.140;2022-09-27T00:23:11;97579.00;;;21.69;52.03
75065;BME280;63646;49.110;9.140;2022-09-27T00:25:37;97579.00;;;21.69;52.37
75065;BME280;63646;49.110;9.140;2022-09-27T00:28:02;97569.34;;;21.68;52.42
75065;BME280;63646;49.110;9.140;2022-09-27T00:30:28;97567.53;;;21.68;51.93
75065;BME280;63646;49.110;9.140;2022-09-27T00:32:53;97571.84;;;21.69;52.07
75065;BME280;63646;49.110;9.140;2022-09-27T00:35:18;97571.03;;;21.69;52.37
75065;BME280;63646;49.110;9.140;2022-09-27T00:37:47;97573.69;;;21.69;52.30
75065;BME280;63646;49.110;9.140;2022-09-27T00:40:13;97572.66;;;21.70;52.08
75065;BME280;63646;49.110;9.140;2022-09-27T00:42:39;97557.09;;;21.67;52.17
75065;BME280;63646;49.110;9.140;2022-09-27T00:45:11;97571.19;;;21.67;52.42
75065;BME280;63646;49.110;9.140;2022-09-27T00:47:50;97567.72;;;21.67;52.02
75065;BME280;63646;49.110;9.140;2022-09-27T00:50:30;97570.38;;;21.67;52.30
75065;BME280;63646;49.110;9.140;2022-09-27T00:55:37;97565.88;;;21.67;52.06
75065;BME280;63646;49.110;9.140;2022-09-27T00:58:05;97567.94;;;21.65;52.04
75065;BME280;63646;49.110;9.140;2022-09-27T01:00:31;97566.25;;;21.64;52.08
75065;BME280;63646;49.110;9.140;2022-09-27T01:02:57;97561.16;;;21.63;52.07
75065;BME280;63646;49.110;9.140;2022-09-27T01:05:26;97558.28;;;21.64;52.46
75065;BME280;63646;49.110;9.140;2022-09-27T01:07:52;97554.63;;;21.65;52.16
75065;BME280;63646;49.110;9.140;2022-09-27T01:10:21;97553.78;;;21.65;52.16
75065;BME280;63646;49.110;9.140;2022-09-27T01:13:19;97557.28;;;21.65;52.65
75065;BME280;63646;49.110;9.140;2022-09-27T01:21:40;97557.09;;;21.67;52.50
75065;BME280;63646;49.110;9.140;2022-09-27T01:32:36;97559.09;;;21.65;52.71
75065;BME280;63646;49.110;9.140;2022-09-27T01:37:44;97549.50;;;21.64;52.76
75065;BME280;63646;49.110;9.140;2022-09-27T01:40:31;97548.47;;;21.65;52.59
75065;BME280;63646;49.110;9.140;2022-09-27T01:43:08;97551.13;;;21.65;52.43
75065;BME280;63646;49.110;9.140;2022-09-27T01:48:19;97541.53;;;21.64;52.50
75065;BME280;63646;49.110;9.140;2022-09-27T01:50:51;97539.88;;;21.63;52.18
75065;BME280;63646;49.110;9.140;2022-09-27T01:53:24;97537.41;;;21.61;52.40
75065;BME280;63646;49.110;9.140;2022-09-27T01:55:53;97533.09;;;21.60;52.26
75065;BME280;63646;49.110;9.140;2022-09-27T02:00:47;97540.91;;;21.62;52.33
75065;BME280;63646;49.110;9.140;2022-09-27T02:03:20;97534.94;;;21.60;52.56
75065;BME280;63646;49.110;9.140;2022-09-27T02:05:49;97539.88;;;21.63;52.18
75065;BME280;63646;49.110;9.140;2022-09-27T02:08:30;97547.22;;;21.61;52.37
75065;BME280;63646;49.110;9.140;2022-09-27T02:11:03;97542.91;;;21.60;52.71
75065;BME280;63646;49.110;9.140;2022-09-27T02:16:52;97556.00;;;21.61;52.73
75065;BME280;63646;49.110;9.140;2022-09-27T02:24:59;97565.81;;;21.61;52.57
75065;BME280;63646;49.110;9.140;2022-09-27T02:27:30;97557.84;;;21.61;52.35
75065;BME280;63646;49.110;9.140;2022-09-27T02:30:06;97575.63;;;21.60;52.47
75065;BME280;63646;49.110;9.140;2022-09-27T02:32:32;97569.50;;;21.60;52.69
75065;BME280;63646;49.110;9.140;2022-09-27T02:35:01;97576.44;;;21.61;52.60
75065;BME280;63646;49.110;9.140;2022-09-27T02:37:29;97574.81;;;21.60;52.50
75065;BME280;63646;49.110;9.140;2022-09-27T02:39:56;97579.09;;;21.61;52.71
75065;BME280;63646;49.110;9.140;2022-09-27T02:42:21;97583.81;;;21.59;52.63
75065;BME280;63646;49.110;9.140;2022-09-27T02:44:47;97579.31;;;21.59;52.35
75065;BME280;63646;49.110;9.140;2022-09-27T02:47:23;97583.81;;;21.59;52.51
75065;BME280;63646;49.110;9.140;2022-09-27T02:50:15;97583.81;;;21.59;52.42
75065;BME280;63646;49.110;9.140;2022-09-27T02:53:15;97586.47;;;21.59;52.75
75065;BME280;63646;49.110;9.140;2022-09-27T03:00:55;97595.47;;;21.58;52.56
75065;BME280;63646;49.110;9.140;2022-09-27T03:06:24;97592.16;;;21.56;52.77
75065;BME280;63646;49.110;9.140;2022-09-27T03:08:51;97591.13;;;21.57;52.54
75065;BME280;63646;49.110;9.140;2022-09-27T03:11:17;97594.81;;;21.56;52.43
75065;BME280;63646;49.110;9.140;2022-09-27T03:13:43;97598.13;;;21.58;52.48
75065;BME280;63646;49.110;9.140;2022-09-27T03:16:09;97593.63;;;21.58;52.92
75065;BME280;63646;49.110;9.140;2022-09-27T03:18:34;97600.78;;;21.58;52.57
75065;BME280;63646;49.110;9.140;2022-09-27T03:21:00;97598.13;;;21.58;52.66
75065;BME280;63646;49.110;9.140;2022-09-27T03:23:25;97601.59;;;21.58;52.61
75065;BME280;63646;49.110;9.140;2022-09-27T03:25:51;97595.19;;;21.53;52.76
75065;BME280;63646;49.110;9.140;2022-09-27T03:28:17;97600.78;;;21.58;52.56
75065;BME280;63646;49.110;9.140;2022-09-27T03:30:44;97595.84;;;21.55;52.81
75065;BME280;63646;49.110;9.140;2022-09-27T03:33:09;97605.44;;;21.56;52.66
75065;BME280;63646;49.110;9.140;2022-09-27T03:35:35;97606.25;;;21.56;52.65
75065;BME280;63646;49.110;9.140;2022-09-27T03:38:01;97599.31;;;21.55;52.68
75065;BME280;63646;49.110;9.140;2022-09-27T03:40:27;97607.28;;;21.55;52.57
75065;BME280;63646;49.110;9.140;2022-09-27T03:42:52;97609.94;;;21.55;52.68
75065;BME280;63646;49.110;9.140;2022-09-27T03:45:19;97611.56;;;21.56;52.81
75065;BME280;63646;49.110;9.140;2022-09-27T03:47:44;97604.44;;;21.57;52.65
75065;BME280;63646;49.110;9.140;2022-09-27T03:50:10;97603.81;;;21.55;53.04
75065;BME280;63646;49.110;9.140;2022-09-27T03:52:36;97618.28;;;21.52;52.72
75065;BME280;63646;49.110;9.140;2022-09-27T03:55:02;97614.44;;;21.55;52.49
75065;BME280;63646;49.110;9.140;2022-09-27T03:57:28;97608.31;;;21.54;52.55
75065;BME280;63646;49.110;9.140;2022-09-27T03:59:55;97614.44;;;21.55;52.76
75065;BME280;63646;49.110;9.140;2022-09-27T04:02:20;97610.31;;;21.52;52.63
75065;BME280;63646;49.110;9.140;2022-09-27T04:04:46;97625.88;;;21.55;52.63
75065;BME280;63646;49.110;9.140;2022-09-27T04:07:11;97613.78;;;21.53;52.70
75065;BME280;63646;49.110;9.140;2022-09-27T04:09:37;97621.75;;;21.53;52.88
75065;BME280;63646;49.110;9.140;2022-09-27T04:12:03;97623.16;;;21.49;52.73
75065;BME280;63646;49.110;9.140;2022-09-27T04:14:28;97626.25;;;21.52;53.01
75065;BME280;63646;49.110;9.140;2022-09-27T04:16:54;97616.28;;;21.54;52.44
75065;BME280;63646;49.110;9.140;2022-09-27T04:19:19;97629.56;;;21.54;52.75
75065;BME280;63646;49.110;9.140;2022-09-27T04:21:45;97625.44;;;21.52;52.58
75065;BME280;63646;49.110;9.140;2022-09-27T04:24:10;97636.50;;;21.55;52.38
75065;BME280;63646;49.110;9.140;2022-09-27T04:26:37;97626.47;;;21.51;52.95
75065;BME280;63646;49.110;9.140;2022-09-27T04:29:03;97629.94;;;21.51;52.49
75065;BME280;63646;49.110;9.140;2022-09-27T04:31:29;97636.06;;;21.52;52.68
75065;BME280;63646;49.110;9.140;2022-09-27T04:33:54;97647.53;;;21.52;52.74
75065;BME280;63646;49.110;9.140;2022-09-27T04:36:21;97636.69;;;21.54;52.79
75065;BME280;63646;49.110;9.140;2022-09-27T04:38:55;97638.53;;;21.53;52.97
75065;BME280;63646;49.110;9.140;2022-09-27T04:41:22;97636.88;;;21.52;52.70
75065;BME280;63646;49.110;9.140;2022-09-27T04:43:49;97643.41;;;21.50;52.62
75065;BME280;63646;49.110;9.140;2022-09-27T04:46:15;97642.19;;;21.52;52.58
75065;BME280;63646;49.110;9.140;2022-09-27T04:48:41;97641.38;;;21.52;52.99
75065;BME280;63646;49.110;9.140;2022-09-27T04:51:08;97650.38;;;21.51;52.79
75065;BME280;63646;49.110;9.140;2022-09-27T04:53:33;97637.91;;;21.51;53.12
75065;BME280;63646;49.110;9.140;2022-09-27T04:55:59;97654.66;;;21.52;54.31
75065;BME280;63646;49.110;9.140;2022-09-27T04:58:31;97654.47;;;21.53;54.42
75065;BME280;63646;49.110;9.140;2022-09-27T05:00:58;97660.44;;;21.55;53.69
75065;BME280;63646;49.110;9.140;2022-09-27T05:03:25;97655.28;;;21.54;53.33
75065;BME280;63646;49.110;9.140;2022-09-27T05:05:52;97660.22;;;21.57;53.49
75065;BME280;63646;49.110;9.140;2022-09-27T05:08:18;97657.56;;;21.57;53.81
75065;BME280;63646;49.110;9.140;2022-09-27T05:10:45;97676.81;;;21.59;53.93
75065;BME280;63646;49.110;9.140;2022-09-27T05:13:11;97671.31;;;21.60;54.45
75065;BME280;63646;49.110;9.140;2022-09-27T05:15:37;97687.09;;;21.62;54.72
75065;BME280;63646;49.110;9.140;2022-09-27T05:18:04;97684.44;;;21.62;54.04
75065;BME280;63646;49.110;9.140;2022-09-27T05:20:31;97684.44;;;21.62;54.06
75065;BME280;63646;49.110;9.140;2022-09-27T05:22:56;97693.03;;;21.64;54.10
75065;BME280;63646;49.110;9.140;2022-09-27T05:25:22;97695.06;;;21.62;52.69
75065;BME280;63646;49.110;9.140;2022-09-27T05:27:49;97699.03;;;21.51;51.89
75065;BME280;63646;49.110;9.140;2022-09-27T05:30:14;97700.66;;;21.52;52.40
75065;BME280;63646;49.110;9.140;2022-09-27T05:32:44;97715.78;;;21.52;53.29
75065;BME280;63646;49.110;9.140;2022-09-27T05:35:11;97712.47;;;21.50;53.08
75065;BME280;63646;49.110;9.140;2022-09-27T05:37:37;97721.94;;;21.52;53.46
75065;BME280;63646;49.110;9.140;2022-09-27T05:40:04;97730.09;;;21.51;53.09
75065;BME280;63646;49.110;9.140;2022-09-27T05:42:30;97720.28;;;21.51;53.13
75065;BME280;63646;49.110;9.140;2022-09-27T05:44:56;97728.88;;;21.53;52.93
75065;BME280;63646;49.110;9.140;2022-09-27T05:47:22;97736.69;;;21.55;53.05
75065;BME280;63646;49.110;9.140;2022-09-27T05:49:47;97734.03;;;21.55;53.34
75065;BME280;63646;49.110;9.140;2022-09-27T05:52:13;97735.47;;;21.57;53.09
75065;BME280;63646;49.110;9.140;2022-09-27T05:54:38;97734.47;;;21.58;53.10
75065;BME280;63646;49.110;9.140;2022-09-27T05:57:03;97739.59;;;21.60;53.15
75065;BME280;63646;49.110;9.140;2022-09-27T05:59:32;97751.25;;;21.59;53.22
75065;BME280;63646;49.110;9.140;2022-09-27T06:01:58;97761.88;;;21.59;53.12
75065;BME280;63646;49.110;9.140;2022-09-27T06:04:23;97761.06;;;21.58;52.65
75065;BME280;63646;49.110;9.140;2022-09-27T06:06:49;97753.25;;;21.57;52.96
75065;BME280;63646;49.110;9.140;2022-09-27T06:09:16;97760.41;;;21.56;53.19
75065;BME280;63646;49.110;9.140;2022-09-27T06:11:43;97764.91;;;21.56;53.18
75065;BME280;63646;49.110;9.140;2022-09-27T06:14:10;97765.72;;;21.56;53.00
75065;BME280;63646;49.110;9.140;2022-09-27T06:16:35;97768.38;;;21.56;53.27
75065;BME280;63646;49.110;9.140;2022-09-27T06:19:01;97766.53;;;21.57;52.96
75065;BME280;63646;49.110;9.140;2022-09-27T06:21:28;97771.84;;;21.57;53.19
75065;BME280;63646;49.110;9.140;2022-09-27T06:23:55;97777.00;;;21.58;53.06
75065;BME280;63646;49.110;9.140;2022-09-27T06:26:21;97774.34;;;21.58;53.28
75065;BME280;63646;49.110;9.140;2022-09-27T06:28:46;97778.84;;;21.58;53.65
75065;BME280;63646;49.110;9.140;2022-09-27T06:31:12;97775.16;;;21.59;53.61
75065;BME280;63646;49.110;9.140;2022-09-27T06:33:38;97777.81;;;21.59;53.38
75065;BME280;63646;49.110;9.140;2022-09-27T06:36:04;97790.91;;;21.60;53.44
75065;BME280;63646;49.110;9.140;2022-09-27T06:38:31;97789.09;;;21.61;53.66
75065;BME280;63646;49.110;9.140;2022-09-27T06:41:00;97785.44;;;21.62;53.68
75065;BME280;63646;49.110;9.140;2022-09-27T06:43:26;97795.06;;;21.63;53.85
75065;BME280;63646;49.110;9.140;2022-09-27T06:45:52;97785.81;;;21.59;52.95
75065;BME280;63646;49.110;9.140;2022-09-27T06:48:18;97792.31;;;21.56;52.63
75065;BME280;63646;49.110;9.140;2022-09-27T06:50:45;97794.13;;;21.56;52.86
75065;BME280;63646;49.110;9.140;2022-09-27T06:53:12;97795.97;;;21.55;52.98
75065;BME280;63646;49.110;9.140;2022-09-27T06:55:39;97800.47;;;21.55;53.37
75065;BME280;63646;49.110;9.140;2022-09-27T06:58:04;97804.97;;;21.54;52.83
75065;BME280;63646;49.110;9.140;2022-09-27T07:00:52;97807.44;;;21.56;52.94
75065;BME280;63646;49.110;9.140;2022-09-27T07:03:19;97818.06;;;21.56;53.18
75065;BME280;63646;49.110;9.140;2022-09-27T07:05:58;97817.03;;;21.57;53.43
75065;BME280;63646;49.110;9.140;2022-09-27T07:08:25;97810.28;;;21.54;53.35
75065;BME280;63646;49.110;9.140;2022-09-27T07:10:53;97814.38;;;21.57;52.92
75065;BME280;63646;49.110;9.140;2022-09-27T07:13:20;97816.06;;;21.58;52.91
75065;BME280;63646;49.110;9.140;2022-09-27T07:15:45;97819.91;;;21.55;53.21
75065;BME280;63646;49.110;9.140;2022-09-27T07:18:11;97818.88;;;21.56;53.08
75065;BME280;63646;49.110;9.140;2022-09-27T07:20:36;97816.88;;;21.58;52.88
75065;BME280;63646;49.110;9.140;2022-09-27T07:23:06;97821.38;;;21.58;53.17
75065;BME280;63646;49.110;9.140;2022-09-27T07:25:32;97821.53;;;21.56;52.53
75065;BME280;63646;49.110;9.140;2022-09-27T07:28:01;97818.41;;;21.53;53.10
75065;BME280;63646;49.110;9.140;2022-09-27T07:30:27;97832.38;;;21.55;52.88
75065;BME280;63646;49.110;9.140;2022-09-27T07:32:58;97826.41;;;21.53;52.76
75065;BME280;63646;49.110;9.140;2022-09-27T07:35:24;97839.69;;;21.53;52.78
75065;BME280;63646;49.110;9.140;2022-09-27T07:37:50;97824.91;;;21.50;52.75
75065;BME280;63646;49.110;9.140;2022-09-27T07:40:16;97839.06;;;21.51;52.71
75065;BME280;63646;49.110;9.140;2022-09-27T07:42:41;97840.69;;;21.52;52.51
75065;BME280;63646;49.110;9.140;2022-09-27T07:45:08;97844.84;;;21.54;52.73
75065;BME280;63646;49.110;9.140;2022-09-27T07:47:34;97852.81;;;21.54;52.72
75065;BME280;63646;49.110;9.140;2022-09-27T07:50:02;97849.94;;;21.56;52.72
75065;BME280;63646;49.110;9.140;2022-09-27T07:52:28;97860.59;;;21.56;53.03
75065;BME280;63646;49.110;9.140;2022-09-27T07:54:54;97850.97;;;21.55;52.90
75065;BME280;63646;49.110;9.140;2022-09-27T07:57:21;97866.72;;;21.56;52.57
75065;BME280;63646;49.110;9.140;2022-09-27T07:59:47;97871.56;;;21.53;52.71
75065;BME280;63646;49.110;9.140;2022-09-27T08:02:14;97872.41;;;21.53;52.87
75065;BME280;63646;49.110;9.140;2022-09-27T08:04:41;97875.88;;;21.54;52.64
75065;BME280;63646;49.110;9.140;2022-09-27T08:07:08;97881.84;;;21.56;52.51
75065;BME280;63646;49.110;9.140;2022-09-27T08:09:34;97884.50;;;21.56;52.65
75065;BME280;63646;49.110;9.140;2022-09-27T08:12:00;97873.88;;;21.56;52.60
75065;BME280;63646;49.110;9.140;2022-09-27T08:14:25;97894.13;;;21.57;52.66
75065;BME280;63646;49.110;9.140;2022-09-27T08:16:50;97894.31;;;21.55;52.77
75065;BME280;63646;49.110;9.140;2022-09-27T08:19:16;97891.66;;;21.55;52.72
75065;BME280;63646;49.110;9.140;2022-09-27T08:21:43;97890.84;;;21.55;52.73
75065;BME280;63646;49.110;9.140;2022-09-27T08:24:08;97903.94;;;21.56;52.73
75065;BME280;63646;49.110;9.140;2022-09-27T08:26:34;97901.28;;;21.56;52.64
75065;BME280;63646;49.110;9.140;2022-09-27T08:28:59;97896.16;;;21.55;52.37
75065;BME280;63646;49.110;9.140;2022-09-27T08:31:25;97903.56;;;21.59;52.62
75065;BME280;63646;49.110;9.140;2022-09-27T08:33:50;97890.47;;;21.58;53.49
75065;BME280;63646;49.110;9.140;2022-09-27T08:36:16;97899.06;;;21.60;53.39
75065;BME280;63646;49.110;9.140;2022-09-27T08:38:42;97898.72;;;21.63;52.80
75065;BME280;63646;49.110;9.140;2022-09-27T08:41:20;97910.38;;;21.62;53.19
75065;BME280;63646;49.110;9.140;2022-09-27T08:49:27;97926.94;;;21.64;53.67
75065;BME280;63646;49.110;9.140;2022-09-27T08:51:52;97932.25;;;21.64;53.78
75065;BME280;63646;49.110;9.140;2022-09-27T08:54:24;97919.63;;;21.66;54.03
75065;BME280;63646;49.110;9.140;2022-09-27T08:56:59;97931.06;;;21.66;53.85
75065;BME280;63646;49.110;9.140;2022-09-27T08:59:33;97932.09;;;21.65;53.77
75065;BME280;63646;49.110;9.140;2022-09-27T09:01:59;97935.38;;;21.67;53.57
75065;BME280;63646;49.110;9.140;2022-09-27T09:04:33;97926.56;;;21.67;53.44
75065;BME280;63646;49.110;9.140;2022-09-27T09:07:14;97932.56;;;21.69;53.67
75065;BME280;63646;49.110;9.140;2022-09-27T09:12:43;97945.84;;;21.69;53.40
75065;BME280;63646;49.110;9.140;2022-09-27T09:16:06;97942.53;;;21.67;53.70
75065;BME280;63646;49.110;9.140;2022-09-27T09:21:45;97950.50;;;21.67;53.40
75065;BME280;63646;49.110;9.140;2022-09-27T09:32:47;97942.53;;;21.67;53.36
75065;BME280;63646;49.110;9.140;2022-09-27T09:35:20;97943.34;;;21.67;53.36
75065;BME280;63646;49.110;9.140;2022-09-27T09:37:48;97932.56;;;21.69;53.47
75065;BME280;63646;49.110;9.140;2022-09-27T09:40:41;97930.25;;;21.66;53.42
75065;BME280;63646;49.110;9.140;2022-09-27T09:43:27;97926.56;;;21.67;53.18
75065;BME280;63646;49.110;9.140;2022-09-27T09:46:17;97928.22;;;21.68;53.06
75065;BME280;63646;49.110;9.140;2022-09-27T09:49:00;97929.03;;;21.68;53.30
75065;BME280;63646;49.110;9.140;2022-09-27T09:51:47;97921.25;;;21.67;52.92
75065;BME280;63646;49.110;9.140;2022-09-27T09:54:30;97934.34;;;21.68;52.97
75065;BME280;63646;49.110;9.140;2022-09-27T09:59:48;97898.97;;;21.68;53.50
75065;BME280;63646;49.110;9.140;2022-09-27T10:02:39;97918.41;;;21.68;53.33
75065;BME280;63646;49.110;9.140;2022-09-27T10:05:11;97929.22;;;21.67;54.03
75065;BME280;63646;49.110;9.140;2022-09-27T10:07:38;97924.13;;;21.65;53.95
75065;BME280;63646;49.110;9.140;2022-09-27T10:10:06;97924.94;;;21.66;53.87
75065;BME280;63646;49.110;9.140;2022-09-27T10:12:32;97917.94;;;21.65;54.04
75065;BME280;63646;49.110;9.140;2022-09-27T10:14:59;97913.47;;;21.65;54.07
75065;BME280;63646;49.110;9.140;2022-09-27T10:17:34;97908.34;;;21.64;54.02
75065;BME280;63646;49.110;9.140;2022-09-27T10:20:02;97911.00;;;21.64;53.19
75065;BME280;63646;49.110;9.140;2022-09-27T10:22:39;97901.53;;;21.61;52.73
75065;BME280;63646;49.110;9.140;2022-09-27T10:25:09;97907.31;;;21.65;52.95
75065;BME280;63646;49.110;9.140;2022-09-27T10:27:45;97902.19;;;21.63;52.84
75065;BME280;63646;49.110;9.140;2022-09-27T10:30:31;97905.66;;;21.64;53.00
75065;BME280;63646;49.110;9.140;2022-09-27T10:33:16;97899.53;;;21.63;52.85
75065;BME280;63646;49.110;9.140;2022-09-27T10:35:45;97902.38;;;21.62;52.84
75065;BME280;63646;49.110;9.140;2022-09-27T10:40:47;97904.19;;;21.61;52.33
75065;BME280;63646;49.110;9.140;2022-09-27T10:43:27;97897.91;;;21.62;52.40
75065;BME280;63646;49.110;9.140;2022-09-27T10:46:12;97927.13;;;21.62;52.62
75065;BME280;63646;49.110;9.140;2022-09-27T10:48:39;97930.97;;;21.60;53.13
75065;BME280;63646;49.110;9.140;2022-09-27T10:51:24;97938.59;;;21.63;52.94
75065;BME280;63646;49.110;9.140;2022-09-27T10:53:50;97933.06;;;21.64;53.53
75065;BME280;63646;49.110;9.140;2022-09-27T10:56:26;97927.41;;;21.67;53.70
75065;BME280;63646;49.110;9.140;2022-09-27T10:58:53;97924.19;;;21.72;53.36
75065;BME280;63646;49.110;9.140;2022-09-27T11:01:20;97932.00;;;21.74;53.37
75065;BME280;63646;49.110;9.140;2022-09-27T11:03:54;97940.44;;;21.77;53.24
75065;BME280;63646;49.110;9.140;2022-09-27T11:08:47;97940.69;;;21.82;52.96
75065;BME280;63646;49.110;9.140;2022-09-27T11:13:39;97942.81;;;21.87;53.10
75065;BME280;63646;49.110;9.140;2022-09-27T11:24:25;97930.34;;;21.87;53.54
75065;BME280;63646;49.110;9.140;2022-09-27T11:40:36;97907.06;;;21.75;52.90
75065;BME280;63646;49.110;9.140;2022-09-27T11:46:27;97897.78;;;21.70;52.64
75065;BME280;63646;49.110;9.140;2022-09-27T11:49:11;97901.72;;;21.75;52.11
75065;BME280;63646;49.110;9.140;2022-09-27T11:55:06;97893.59;;;21.76;51.97
75065;BME280;63646;49.110;9.140;2022-09-27T12:08:08;97908.16;;;21.80;51.62
75065;BME280;63646;49.110;9.140;2022-09-27T12:10:39;97906.69;;;21.78;52.17
75065;BME280;63646;49.110;9.140;2022-09-27T12:13:11;97922.84;;;21.76;51.79
75065;BME280;63646;49.110;9.140;2022-09-27T12:15:41;97902.41;;;21.77;51.79
75065;BME280;63646;49.110;9.140;2022-09-27T12:18:26;97918.97;;;21.79;51.72
75065;BME280;63646;49.110;9.140;2022-09-27T12:20:54;97911.19;;;21.77;51.69
75065;BME280;63646;49.110;9.140;2022-09-27T12:23:38;97900.56;;;21.77;51.70
75065;BME280;63646;49.110;9.140;2022-09-27T12:26:12;97897.91;;;21.77;52.21
75065;BME280;63646;49.110;9.140;2022-09-27T12:28:50;97895.03;;;21.79;51.92
75065;BME280;63646;49.110;9.140;2022-09-27T12:31:42;97893.84;;;21.81;51.90
75065;BME280;63646;49.110;9.140;2022-09-27T12:36:46;97883.38;;;21.80;50.56
75065;BME280;63646;49.110;9.140;2022-09-27T12:41:47;97884.75;;;21.76;51.26
75065;BME280;63646;49.110;9.140;2022-09-27T12:44:14;97877.00;;;21.74;50.83
75065;BME280;63646;49.110;9.140;2022-09-27T12:46:59;97881.94;;;21.77;50.82
75065;BME280;63646;49.110;9.140;2022-09-27T12:52:23;97873.78;;;21.79;54.54
75065;BME280;63646;49.110;9.140;2022-09-27T13:00:19;97870.84;;;21.88;54.84
75065;BME280;63646;49.110;9.140;2022-09-27T13:13:36;97892.00;;;21.97;55.07
75065;BME280;63646;49.110;9.140;2022-09-27T13:16:04;97880.56;;;21.96;54.50
75065;BME280;63646;49.110;9.140;2022-09-27T13:18:31;97879.97;;;22.01;54.88
75065;BME280;63646;49.110;9.140;2022-09-27T13:21:52;97886.13;;;22.01;55.21
75065;BME280;63646;49.110;9.140;2022-09-27T13:24:00;97892.72;;;22.05;55.32
75065;BME280;63646;49.110;9.140;2022-09-27T13:29:00;97889.53;;;22.10;54.90
75065;BME280;63646;49.110;9.140;2022-09-27T13:43:31;97865.34;;;21.75;51.76
75065;BME280;63646;49.110;9.140;2022-09-27T13:45:34;97865.34;;;21.75;51.77
75065;BME280;63646;49.110;9.140;2022-09-27T13:48:29;97868.66;;;21.77;51.40
75065;BME280;63646;49.110;9.140;2022-09-27T13:51:25;97866.63;;;21.79;51.43
75065;BME280;63646;49.110;9.140;2022-09-27T13:54:02;97864.03;;;21.86;51.89
75065;BME280;63646;49.110;9.140;2022-09-27T14:01:53;97858.00;;;21.92;52.25
75065;BME280;63646;49.110;9.140;2022-09-27T14:04:28;97863.13;;;21.93;52.72
75065;BME280;63646;49.110;9.140;2022-09-27T14:06:59;97861.13;;;21.95;52.04
75065;BME280;63646;49.110;9.140;2022-09-27T14:09:29;97858.25;;;21.97;52.39
75065;BME280;63646;49.110;9.140;2022-09-27T14:11:58;97864.41;;;21.98;52.11
75065;BME280;63646;49.110;9.140;2022-09-27T14:14:28;97861.56;;;21.99;52.30
75065;BME280;63646;49.110;9.140;2022-09-27T14:17:00;97869.09;;;21.95;52.45
75065;BME280;63646;49.110;9.140;2022-09-27T14:19:26;97860.66;;;21.92;52.19
75065;BME280;63646;49.110;9.140;2022-09-27T14:21:52;97862.94;;;21.95;52.50
75065;BME280;63646;49.110;9.140;2022-09-27T14:24:32;97859.47;;;21.94;52.66
75065;BME280;63646;49.110;9.140;2022-09-27T14:27:22;97851.03;;;21.91;52.66
75065;BME280;63646;49.110;9.140;2022-09-27T14:30:08;97852.41;;;21.87;52.40
75065;BME280;63646;49.110;9.140;2022-09-27T14:32:54;97850.38;;;21.89;52.55
75065;BME280;63646;49.110;9.140;2022-09-27T14:35:25;97860.19;;;21.88;52.41
75065;BME280;63646;49.110;9.140;2022-09-27T14:38:14;97864.25;;;21.84;51.98
75065;BME280;63646;49.110;9.140;2022-09-27T14:40:54;97861.75;;;21.83;52.68
75065;BME280;63646;49.110;9.140;2022-09-27T14:43:22;97868.28;;;21.80;52.92
75065;BME280;63646;49.110;9.140;2022-09-27T14:45:50;97862.97;;;21.80;52.38
75065;BME280;63646;49.110;9.140;2022-09-27T14:48:25;97878.91;;;21.80;52.76
75065;BME280;63646;49.110;9.140;2022-09-27T14:53:46;97873.78;;;21.79;52.21
75065;BME280;63646;49.110;9.140;2022-09-27T14:56:16;97860.84;;;21.76;53.03
75065;BME280;63646;49.110;9.140;2022-09-27T14:58:43;97858.47;;;21.81;52.79
75065;BME280;63646;49.110;9.140;2022-09-27T15:01:17;97855.97;;;21.79;52.33
75065;BME280;63646;49.110;9.140;2022-09-27T15:03:45;97858.63;;;21.79;52.38
75065;BME280;63646;49.110;9.140;2022-09-27T15:06:14;97861.13;;;21.81;52.93
75065;BME280;63646;49.110;9.140;2022-09-27T15:08:40;97847.63;;;21.82;52.61
75065;BME280;63646;49.110;9.140;2022-09-27T15:11:07;97861.69;;;21.91;52.60
75065;BME280;63646;49.110;9.140;2022-09-27T15:13:35;97864.97;;;21.93;52.26
75065;BME280;63646;49.110;9.140;2022-09-27T15:16:07;97871.47;;;21.90;52.16
75065;BME280;63646;49.110;9.140;2022-09-27T15:18:43;97867.16;;;21.89;52.38
75065;BME280;63646;49.110;9.140;2022-09-27T15:21:14;97885.59;;;21.91;52.86
75065;BME280;63646;49.110;9.140;2022-09-27T15:23:51;97887.25;;;21.92;52.63
75065;BME280;63646;49.110;9.140;2022-09-27T15:26:32;97887.41;;;21.90;52.33
75065;BME280;63646;49.110;9.140;2022-09-27T15:29:00;97891.09;;;21.89;52.93
75065;BME280;63646;49.110;9.140;2022-09-27T15:31:30;97889.44;;;21.88;52.48
75065;BME280;63646;49.110;9.140;2022-09-27T15:36:48;97886.13;;;21.86;52.48
75065;BME280;63646;49.110;9.140;2022-09-27T15:39:24;97874.88;;;21.84;52.73
75065;BME280;63646;49.110;9.140;2022-09-27T15:42:10;97874.88;;;21.84;52.56
75065;BME280;63646;49.110;9.140;2022-09-27T15:47:37;97885.69;;;21.83;53.34
75065;BME280;63646;49.110;9.140;2022-09-27T15:52:46;97890.19;;;21.82;53.50
75065;BME280;63646;49.110;9.140;2022-09-27T15:55:14;97885.88;;;21.81;53.37
75065;BME280;63646;49.110;9.140;2022-09-27T15:57:40;97882.66;;;21.86;53.13
75065;BME280;63646;49.110;9.140;2022-09-27T16:02:32;97877.34;;;21.86;54.83
75065;BME280;63646;49.110;9.140;2022-09-27T16:04:57;97887.16;;;21.85;55.25
75065;BME280;63646;49.110;9.140;2022-09-27T16:07:22;97882.84;;;21.84;55.10